Agate Beach, Oregon
Current Conditions -  °F | °C
As of 7:15 PM on Wednesday 22 Oct 2014 (Local Time) from KONP Reporting Station
Overcast Overcast  
Wind Chill: 57°   Ceiling: 5500
Heat Index: 57°   Visibility: 7mi
Dew Point: 55°   Wind: 15mph
Humidity: 94%   Direction: 190°S
Pressure: 29.76"   Gusts: 23mph
Location:  44.6805°N, 124.021°W
Report Text: KONP 230215Z AUTO 19013G20KT 7SM SCT012 SCT022 OVC055 14/13 A2976 RMK AO2
Loading
Personal Weather Stations






























Interactive Weather Map
Tropical Storm Tracking
New forecast layout! Learn more

10-Day Weather Forecast

Advertisements
Track Severe Weather on mobile